Falfurrias, TX

1:39 PM CST on November 21, 2019 (GMT -0600)
Falfurrias

Weather History for KBKS - August, 2019

Change the Weather History Date:

Tuesday, August 27, 2019

  Actual Average (KNQI) Record (KNQI)
Temperature  
Mean Temperature 92 °F -  
Max Temperature 104 °F 91 °F 104 °F (2011)
Min Temperature 81 °F 72 °F 70 °F (2015)
Cooling Degree Days 27    
Growing Degree Days 42 (Base 50)    
Moisture  
Dew Point 75 °F    
Average Humidity 65    
Maximum Humidity 90    
Minimum Humidity 29    
Precipitation  
Precipitation 0.00 in - - ()
Sea Level Pressure  
Sea Level Pressure 29.84 in    
Wind  
Wind Speed 9 mph ()    
Max Wind Speed 18 mph    
Max Gust Speed 25 mph    
Visibility 9.7 miles    
Events      
Averages and records for this station are not official NWS values.
T = Trace of Precipitation, MM = Missing Value Source: Averaged Metar Reports

Daily Weather History Graph

Daily Weather History Graph

Search for Another Location

Airport or City:

Astronomy

Aug. 27, 2019 Rise Set
Actual Time 7:09 AM CDT 7:58 PM CDT
Civil Twilight 6:45 AM CDT 8:22 PM CDT
Nautical Twilight 6:17 AM CDT 8:50 PM CDT
Astronomical Twilight 5:48 AM CDT 9:18 PM CDT
Moon 3:54 AM CDT (8/27) 6:02 PM CDT (8/27)
Length of Visible Light 13h 36m
Length of Day
12h 48m
Waning Crescent, 11% of the Moon is Illuminated
Aug 27
Waning Crescent
Aug 30
New
Sep 5
First Quarter
Sep 13
Full
Sep 21
Last Quarter

Hourly Weather History & Observations

Time (CDT) Temp. Heat Index Dew Point Humidity Pressure Visibility Wind Dir Wind Speed Gust Speed Precip Events Conditions
12:15 AM 85.5 °F 96.8 °F 77.4 °F 77% 29.82 in 10.0 mi SE 9.2 mph - N/A   Clear
12:35 AM 85.1 °F 96.2 °F 77.5 °F 78% 29.82 in 10.0 mi SE 10.4 mph - N/A   Clear
12:55 AM 84.7 °F 95.6 °F 77.5 °F 79% 29.82 in 10.0 mi SE 11.5 mph - N/A   Clear
1:15 AM 84.4 °F 95.4 °F 77.9 °F 81% 29.81 in 10.0 mi SE 9.2 mph - N/A   Clear
1:35 AM 84.4 °F 95.4 °F 77.9 °F 81% 29.81 in 10.0 mi SE 9.2 mph - N/A   Clear
1:55 AM 84.2 °F 94.9 °F 77.9 °F 81% 29.80 in 10.0 mi SE 11.5 mph - N/A   Clear
2:15 AM 83.8 °F 94.3 °F 77.9 °F 82% 29.80 in 10.0 mi SSE 11.5 mph 17.3 mph N/A   Clear
2:35 AM 83.8 °F 94.3 °F 77.9 °F 82% 29.80 in 10.0 mi SSE 9.2 mph - N/A   Clear
2:55 AM 83.5 °F 93.6 °F 77.9 °F 83% 29.80 in 10.0 mi SE 8.1 mph - N/A   Clear
3:15 AM 83.5 °F 94.0 °F 78.1 °F 84% 29.80 in 10.0 mi SSE 6.9 mph - N/A   Mostly Cloudy
3:35 AM 83.5 °F 94.0 °F 78.1 °F 84% 29.80 in 10.0 mi SE 4.6 mph - N/A   Mostly Cloudy
3:55 AM 83.5 °F 94.0 °F 78.3 °F 84% 29.80 in 10.0 mi SE 3.5 mph - N/A   Mostly Cloudy
4:15 AM 83.3 °F 93.8 °F 78.3 °F 85% 29.80 in 10.0 mi ESE 3.5 mph - N/A   Overcast
4:35 AM 82.6 °F 92.0 °F 77.9 °F 86% 29.80 in 10.0 mi ESE 3.5 mph - N/A   Mostly Cloudy
4:55 AM 82.4 °F 91.5 °F 77.9 °F 86% 29.80 in 10.0 mi East 3.5 mph - N/A   Mostly Cloudy
5:15 AM 81.5 °F 89.5 °F 77.5 °F 88% 29.80 in 10.0 mi East 3.5 mph - N/A   Scattered Clouds
5:35 AM 81.5 °F 89.5 °F 77.5 °F 88% 29.80 in 7.0 mi East 3.5 mph - N/A   Mostly Cloudy
5:55 AM 81.3 °F 89.2 °F 77.7 °F 89% 29.81 in 7.0 mi ESE 4.6 mph - N/A   Mostly Cloudy
6:15 AM 81.5 °F 89.7 °F 77.9 °F 89% 29.81 in 7.0 mi ESE 4.6 mph - N/A   Mostly Cloudy
6:35 AM 81.1 °F 88.7 °F 77.5 °F 89% 29.81 in 7.0 mi ESE 3.5 mph - N/A   Scattered Clouds
6:55 AM 81.0 °F 88.1 °F 77.5 °F 89% 29.81 in 7.0 mi ESE 3.5 mph - N/A   Clear
7:15 AM 81.0 °F 88.4 °F 77.9 °F 90% 29.81 in 7.0 mi ESE 4.6 mph - N/A   Clear
7:35 AM 81.1 °F 88.9 °F 77.9 °F 90% 29.81 in 7.0 mi ESE 4.6 mph - N/A   Clear
7:55 AM 81.9 °F 90.8 °F 78.3 °F 89% 29.81 in 7.0 mi SE 8.1 mph - N/A   Clear
8:15 AM 83.1 °F 93.3 °F 78.1 °F 85% 29.82 in 10.0 mi SE 8.1 mph - N/A   Clear
8:35 AM 84.9 °F 96.6 °F 78.3 °F 80% 29.82 in 10.0 mi SSE 11.5 mph - N/A   Clear
8:55 AM 86.0 °F 98.8 °F 78.3 °F 78% 29.82 in 10.0 mi SE 13.8 mph 18.4 mph N/A   Scattered Clouds
9:15 AM 88.2 °F 101.8 °F 78.3 °F 72% 29.83 in 10.0 mi SSE 15.0 mph 19.6 mph N/A   Scattered Clouds
9:35 AM 89.2 °F 101.8 °F 77.2 °F 67% 29.83 in 10.0 mi SSE 15.0 mph - N/A   Scattered Clouds
9:55 AM 91.0 °F 103.5 °F 76.3 °F 62% 29.84 in 10.0 mi SSE 15.0 mph 24.2 mph N/A   Mostly Cloudy
10:15 AM 91.6 °F 102.3 °F 75.0 °F 58% 29.85 in 10.0 mi SSE 16.1 mph - N/A   Scattered Clouds
10:35 AM 92.8 °F 103.4 °F 74.7 °F 55% 29.85 in 10.0 mi SE 12.7 mph 21.9 mph N/A   Scattered Clouds
10:55 AM 93.9 °F 104.0 °F 73.8 °F 52% 29.86 in 10.0 mi SSE 12.7 mph - N/A   Clear
11:15 AM 95.7 °F 104.8 °F 72.5 °F 47% 29.86 in 10.0 mi SE 10.4 mph 18.4 mph N/A   Scattered Clouds
11:35 AM 96.3 °F 103.9 °F 71.2 °F 44% 29.86 in 10.0 mi SE 10.4 mph 20.7 mph N/A   Clear
11:55 AM 97.2 °F 105.2 °F 71.2 °F 43% 29.86 in 10.0 mi SE 13.8 mph 18.4 mph N/A   Clear
12:15 PM 98.6 °F 105.5 °F 69.4 °F 39% 29.85 in 10.0 mi SE 11.5 mph 18.4 mph N/A   Clear
12:35 PM 99.7 °F 104.9 °F 67.5 °F 35% 29.85 in 10.0 mi SSE 13.8 mph 18.4 mph N/A   Clear
12:55 PM 100.4 °F 106.3 °F 68.2 °F 35% 29.84 in 10.0 mi SE 12.7 mph 18.4 mph N/A   Clear
1:15 PM 101.3 °F 107.4 °F 67.8 °F 34% 29.83 in 10.0 mi SE 13.8 mph 19.6 mph N/A   Clear
1:35 PM 102.2 °F 107.7 °F 66.7 °F 32% 29.83 in 10.0 mi SSE 13.8 mph 20.7 mph N/A   Clear
1:55 PM 103.3 °F 107.5 °F 65.5 °F 29% 29.82 in 10.0 mi SSE 12.7 mph 21.9 mph N/A   Clear
2:15 PM 103.8 °F 108.5 °F 66.0 °F 29% 29.81 in 10.0 mi SE 13.8 mph 20.7 mph N/A   Clear
2:35 PM 103.3 °F 112.4 °F 70.9 °F 35% 29.82 in 10.0 mi ESE 17.3 mph 23.0 mph N/A   Clear
2:55 PM 103.1 °F 114.7 °F 73.0 °F 38% 29.81 in 10.0 mi East 13.8 mph 21.9 mph N/A   Scattered Clouds
3:15 PM 103.5 °F 115.5 °F 73.6 °F 38% 29.81 in 10.0 mi SE 11.5 mph 23.0 mph N/A   Scattered Clouds
3:35 PM 102.6 °F 115.3 °F 74.1 °F 40% 29.81 in 10.0 mi East 18.4 mph 24.2 mph N/A   Scattered Clouds
3:55 PM 101.3 °F 115.0 °F 74.8 °F 43% 29.82 in 10.0 mi East 16.1 mph 21.9 mph N/A   Scattered Clouds
4:35 PM 100.0 °F 112.7 °F 74.5 °F 44% 29.82 in 10.0 mi East 17.3 mph - N/A   Scattered Clouds
4:55 PM 99.7 °F 112.7 °F 74.7 °F 45% 29.83 in 10.0 mi East 17.3 mph 25.3 mph N/A   Scattered Clouds
5:15 PM 99.0 °F 110.9 °F 74.5 °F 45% 29.83 in 10.0 mi ESE 15.0 mph 23.0 mph N/A   Scattered Clouds
5:35 PM 98.2 °F 110.0 °F 73.9 °F 46% 29.84 in 10.0 mi East 17.3 mph 25.3 mph N/A   Clear
5:55 PM 96.8 °F 107.3 °F 73.4 °F 47% 29.84 in 10.0 mi ESE 13.8 mph 23.0 mph N/A   Clear
6:15 PM 96.4 °F 105.7 °F 72.9 °F 46% 29.83 in 10.0 mi ESE 16.1 mph 21.9 mph N/A   Clear
6:35 PM 95.5 °F 102.4 °F 70.3 °F 44% 29.84 in 10.0 mi ESE 17.3 mph 24.2 mph N/A   Clear
6:55 PM 93.9 °F 99.7 °F 69.8 °F 45% 29.84 in 10.0 mi ESE 17.3 mph 25.3 mph N/A   Clear
7:15 PM 92.7 °F 99.4 °F 70.7 °F 49% 29.85 in 10.0 mi ESE 16.1 mph 23.0 mph N/A   Clear
7:35 PM 91.6 °F 97.7 °F 70.5 °F 50% 29.86 in 10.0 mi ESE 13.8 mph 19.6 mph N/A   Clear
7:55 PM 90.3 °F 97.2 °F 71.6 °F 54% 29.86 in 10.0 mi ESE 12.7 mph 17.3 mph N/A   Clear
8:15 PM 89.1 °F 98.0 °F 73.9 °F 61% 29.86 in 10.0 mi ESE 12.7 mph 21.9 mph N/A   Clear
8:35 PM 88.0 °F 98.0 °F 75.4 °F 66% 29.87 in 10.0 mi ESE 11.5 mph - N/A   Clear
8:55 PM 87.6 °F 98.2 °F 75.7 °F 68% 29.88 in 10.0 mi ESE 9.2 mph - N/A   Clear
9:15 PM 86.9 °F 97.3 °F 76.1 °F 70% 29.90 in 10.0 mi ESE 8.1 mph - N/A   Clear
9:35 PM 86.4 °F 97.4 °F 76.6 °F 73% 29.91 in 10.0 mi ESE 6.9 mph - N/A   Clear
9:55 PM 86.0 °F 96.9 °F 77.0 °F 74% 29.93 in 10.0 mi ESE 6.9 mph - N/A   Clear
10:15 PM 85.5 °F 96.3 °F 77.0 °F 76% 29.94 in 10.0 mi East 5.8 mph - N/A   Scattered Clouds
10:55 PM 84.6 °F 94.7 °F 77.0 °F 78% 29.94 in 10.0 mi East 5.8 mph - N/A   Scattered Clouds
11:15 PM 84.2 °F 94.5 °F 77.4 °F 80% 29.94 in 10.0 mi East 4.6 mph - N/A   Clear
11:35 PM 83.7 °F 93.4 °F 77.4 °F 81% 29.94 in 10.0 mi ESE 3.5 mph - N/A   Clear
11:55 PM 83.5 °F 93.3 °F 77.5 °F 82% 29.93 in 10.0 mi SE 3.5 mph - N/A   Clear